Time;durP1;ratioP1;P1;durP2;ratioP2;P2;SDS_P1;SDS_P2;PMS_P1;PMS_P2;Temp;Humidity;BMP_temperature;BMP_pressure;BME280_temperature;BME280_humidity;BME280_pressure;Samples;Min_cycle;Max_cycle;Signal;HPM_P1;HPM_P2
2022/07/25 00:01:33;;;;;;;8.18;7.47;;;24.60;99.10;;;;;;5048240;28;20191;-78
2022/07/25 00:04:00;;;;;;;8.07;7.30;;;25.00;96.40;;;;;;5047726;28;20202;-78
2022/07/25 00:06:29;;;;;;;7.60;6.90;;;25.10;95.20;;;;;;5050697;28;20575;-77
2022/07/25 00:08:56;;;;;;;7.25;6.50;;;25.20;94.80;;;;;;5050909;28;20545;-77
2022/07/25 00:11:24;;;;;;;8.40;7.60;;;25.10;94.00;;;;;;5047409;28;20199;-77
2022/07/25 00:13:51;;;;;;;8.40;7.70;;;25.20;94.30;;;;;;5052521;28;20194;-77
2022/07/25 00:16:19;;;;;;;8.95;7.25;;;25.20;93.60;;;;;;5033604;28;20229;-78
2022/07/25 00:18:46;;;;;;;7.85;7.15;;;25.30;93.50;;;;;;5050148;28;20229;-77
2022/07/25 00:21:14;;;;;;;7.75;7.05;;;25.20;93.50;;;;;;5049654;28;20200;-77
2022/07/25 00:23:43;;;;;;;8.50;7.70;;;25.20;93.50;;;;;;5041904;28;20209;-78
2022/07/25 00:26:10;;;;;;;7.90;6.90;;;25.20;93.10;;;;;;5048785;28;20218;-77
2022/07/25 00:28:37;;;;;;;8.15;7.45;;;25.20;92.70;;;;;;5051195;28;20190;-77
2022/07/25 00:31:05;;;;;;;8.02;6.78;;;25.20;92.60;;;;;;5033195;28;20206;-77
2022/07/25 00:33:33;;;;;;;7.80;6.88;;;25.10;92.60;;;;;;5046472;28;20191;-78
2022/07/25 00:36:01;;;;;;;8.07;7.05;;;25.20;92.40;;;;;;5031858;28;20222;-78
2022/07/25 00:38:28;;;;;;;7.53;6.90;;;25.00;92.40;;;;;;5030257;28;20549;-78
2022/07/25 00:40:57;;;;;;;8.07;7.22;;;25.10;92.40;;;;;;5047873;28;20683;-78
2022/07/25 00:43:25;;;;;;;7.57;6.90;;;25.20;91.90;;;;;;5055276;28;20194;-78
2022/07/25 00:45:52;;;;;;;8.63;7.68;;;25.10;91.80;;;;;;5031536;28;20233;-78
2022/07/25 00:48:20;;;;;;;7.18;6.57;;;25.20;91.60;;;;;;5024885;28;20202;-78
2022/07/25 00:50:47;;;;;;;8.93;7.30;;;25.20;91.60;;;;;;5045758;28;20183;-79
2022/07/25 00:53:15;;;;;;;7.43;6.72;;;25.20;91.30;;;;;;5043088;28;20194;-79
2022/07/25 00:55:43;;;;;;;8.48;7.68;;;25.30;91.40;;;;;;5028622;28;20718;-79
2022/07/25 00:58:12;;;;;;;7.70;7.00;;;25.30;91.10;;;;;;5049965;28;20656;-78
2022/07/25 01:00:40;;;;;;;7.35;6.65;;;25.30;90.90;;;;;;5030693;28;20225;-78
2022/07/25 01:03:07;;;;;;;7.03;6.40;;;25.30;90.80;;;;;;5033160;28;20210;-78
2022/07/25 01:05:35;;;;;;;9.13;7.47;;;25.30;90.80;;;;;;5048484;28;20233;-78
2022/07/25 01:08:03;;;;;;;7.75;6.95;;;25.30;90.60;;;;;;5027596;28;20203;-78
2022/07/25 01:10:32;;;;;;;7.85;7.15;;;25.30;90.70;;;;;;5043797;28;20183;-79
2022/07/25 01:13:01;;;;;;;7.43;6.82;;;25.30;90.50;;;;;;5023665;28;20207;-78
2022/07/25 01:15:30;;;;;;;7.65;6.82;;;25.30;90.60;;;;;;5046883;28;20222;-79
2022/07/25 01:17:57;;;;;;;7.40;6.70;;;25.30;90.20;;;;;;5035484;28;20679;-79
2022/07/25 01:20:28;;;;;;;7.35;6.75;;;25.30;90.40;;;;;;5061756;28;20218;-78
2022/07/25 01:22:56;;;;;;;7.40;6.70;;;25.30;90.30;;;;;;5047005;28;20194;-78
2022/07/25 01:25:25;;;;;;;7.28;6.57;;;25.30;90.30;;;;;;5043011;28;20233;-79
2022/07/25 01:27:53;;;;;;;8.15;7.45;;;25.30;90.10;;;;;;5051973;28;20202;-78
2022/07/25 01:30:23;;;;;;;7.07;6.50;;;25.30;90.20;;;;;;5052978;28;20205;-79
2022/07/25 01:32:51;;;;;;;6.88;6.28;;;25.30;90.10;;;;;;5049194;28;20282;-78
2022/07/25 01:35:19;;;;;;;6.97;6.28;;;25.20;90.10;;;;;;5043444;28;20226;-79
2022/07/25 01:37:48;;;;;;;7.43;6.72;;;25.20;90.20;;;;;;5052785;28;20218;-79
2022/07/25 01:40:15;;;;;;;8.05;7.25;;;25.20;90.10;;;;;;5033222;28;20223;-78
2022/07/25 01:42:43;;;;;;;7.00;6.40;;;25.10;90.20;;;;;;5041492;28;20671;-79
2022/07/25 01:45:12;;;;;;;7.70;7.00;;;25.20;90.30;;;;;;5051468;28;20627;-78
2022/07/25 01:47:40;;;;;;;7.57;6.82;;;25.10;90.40;;;;;;5047752;28;20187;-78
2022/07/25 01:50:09;;;;;;;8.27;6.82;;;25.10;90.20;;;;;;5045772;28;20190;-78
2022/07/25 01:52:38;;;;;;;7.20;6.60;;;25.20;90.20;;;;;;5039095;28;20682;-78
2022/07/25 01:55:08;;;;;;;7.47;6.88;;;25.10;90.10;;;;;;5039175;28;20222;-78
2022/07/25 01:57:36;;;;;;;8.02;7.22;;;25.10;90.10;;;;;;5052336;28;20332;-78
2022/07/25 02:00:05;;;;;;;7.47;6.82;;;25.20;90.10;;;;;;5050256;28;20589;-78
2022/07/25 02:02:39;;;;;;;8.15;6.78;;;25.00;90.10;;;;;;5054359;28;20197;-78
2022/07/25 02:05:08;;;;;;;8.57;6.85;;;25.00;90.20;;;;;;5052177;28;20222;-78
2022/07/25 02:07:35;;;;;;;7.40;6.70;;;24.90;90.20;;;;;;5046852;28;20457;-78
2022/07/25 02:10:05;;;;;;;7.45;6.75;;;24.90;90.40;;;;;;5052623;28;20210;-78
2022/07/25 02:12:34;;;;;;;7.72;7.00;;;24.70;90.40;;;;;;5050312;28;20656;-78
2022/07/25 02:15:01;;;;;;;7.97;7.18;;;24.70;90.40;;;;;;5052065;28;20218;-78
2022/07/25 02:17:29;;;;;;;8.90;6.90;;;24.90;90.40;;;;;;5057849;28;20198;-78
2022/07/25 02:19:56;;;;;;;7.95;7.10;;;24.90;90.30;;;;;;5053649;28;20206;-78
2022/07/25 02:22:24;;;;;;;7.82;7.10;;;24.80;90.40;;;;;;5032228;28;20570;-78
2022/07/25 02:24:51;;;;;;;8.00;7.22;;;24.70;90.50;;;;;;5038269;28;20229;-78
2022/07/25 02:27:19;;;;;;;7.72;7.03;;;24.70;90.80;;;;;;5022094;28;20207;-78
2022/07/25 02:29:47;;;;;;;7.47;6.88;;;24.70;90.70;;;;;;5027672;28;20209;-78
2022/07/25 02:32:15;;;;;;;7.72;7.05;;;24.60;90.70;;;;;;5046355;28;20682;-78
2022/07/25 02:34:42;;;;;;;7.32;6.72;;;24.50;91.00;;;;;;5050479;28;20217;-78
2022/07/25 02:37:11;;;;;;;7.93;7.03;;;24.50;91.10;;;;;;5047599;28;20190;-78
2022/07/25 02:39:39;;;;;;;7.95;7.15;;;24.40;91.20;;;;;;5052854;28;20186;-78
2022/07/25 02:42:06;;;;;;;8.07;7.38;;;24.50;91.20;;;;;;5054018;28;20198;-77
2022/07/25 02:44:34;;;;;;;7.82;7.03;;;24.30;91.30;;;;;;5047315;28;20210;-78
2022/07/25 02:47:03;;;;;;;7.95;7.03;;;24.30;91.50;;;;;;5050551;28;20213;-78
2022/07/25 02:49:30;;;;;;;8.18;7.40;;;24.40;91.30;;;;;;5040517;28;20200;-78
2022/07/25 02:51:58;;;;;;;7.70;7.03;;;24.30;91.40;;;;;;5031557;28;20199;-78
2022/07/25 02:54:25;;;;;;;8.18;7.38;;;24.40;91.40;;;;;;5032895;28;20241;-78
2022/07/25 02:56:52;;;;;;;7.95;7.05;;;24.40;91.30;;;;;;5032878;28;20199;-78
2022/07/25 02:59:20;;;;;;;6.95;6.35;;;24.50;91.10;;;;;;5052555;28;20195;-78
2022/07/25 03:01:47;;;;;;;8.27;6.50;;;24.60;91.00;;;;;;5028067;28;20215;-78
2022/07/25 03:04:16;;;;;;;7.75;6.95;;;24.60;91.10;;;;;;5028829;28;20205;-78
2022/07/25 03:06:44;;;;;;;6.88;6.30;;;24.50;91.10;;;;;;5048679;28;20567;-78
2022/07/25 03:09:11;;;;;;;7.32;6.72;;;24.60;91.00;;;;;;5031214;28;20209;-78
2022/07/25 03:11:50;;;;;;;8.00;7.15;;;24.60;91.10;;;;;;5045627;28;20198;-78
2022/07/25 03:14:18;;;;;;;7.38;6.70;;;24.50;91.10;;;;;;5029253;28;20686;-78
2022/07/25 03:16:45;;;;;;;7.78;7.07;;;24.60;91.20;;;;;;5044012;28;20209;-78
2022/07/25 03:19:13;;;;;;;7.88;7.07;;;24.60;91.20;;;;;;5047999;28;20194;-78
2022/07/25 03:21:42;;;;;;;7.28;6.65;;;24.60;91.10;;;;;;5027269;28;20210;-78
2022/07/25 03:24:09;;;;;;;8.02;7.25;;;24.60;91.20;;;;;;5023889;28;20591;-78
2022/07/25 03:26:37;;;;;;;7.28;6.57;;;24.60;91.20;;;;;;5045554;28;20206;-78
2022/07/25 03:29:04;;;;;;;7.07;6.47;;;24.60;91.30;;;;;;5033138;28;20540;-78
2022/07/25 03:31:32;;;;;;;7.07;6.43;;;24.60;91.30;;;;;;5032539;28;20198;-78
2022/07/25 03:33:59;;;;;;;7.32;6.63;;;24.60;91.40;;;;;;5044117;28;20206;-77
2022/07/25 03:36:27;;;;;;;7.22;6.53;;;24.50;91.60;;;;;;5048092;28;20692;-78
2022/07/25 03:38:56;;;;;;;7.05;6.35;;;24.50;91.40;;;;;;5026442;28;20209;-78
2022/07/25 03:41:24;;;;;;;8.70;6.63;;;24.50;91.40;;;;;;5034647;28;20218;-78
2022/07/25 03:43:51;;;;;;;7.88;6.78;;;24.50;91.50;;;;;;5047925;28;20210;-78
2022/07/25 03:46:18;;;;;;;10.13;7.13;;;24.50;91.60;;;;;;5033878;28;20589;-78
2022/07/25 03:48:46;;;;;;;7.82;7.03;;;24.40;91.60;;;;;;5048179;28;20190;-78
2022/07/25 03:51:13;;;;;;;7.32;6.63;;;24.30;91.80;;;;;;5046359;28;20558;-78
2022/07/25 03:56:27;;;;;;;7.35;6.75;;;24.10;92.20;;;;;;5040860;28;20273;-78
2022/07/25 03:58:55;;;;;;;7.03;6.43;;;24.20;92.00;;;;;;5030099;28;20198;-78
2022/07/25 04:01:22;;;;;;;8.43;7.63;;;24.10;92.10;;;;;;5034461;28;20237;-78
2022/07/25 04:03:50;;;;;;;7.38;6.68;;;24.30;92.00;;;;;;5038346;28;20190;-78
2022/07/25 04:06:17;;;;;;;7.70;6.45;;;24.30;91.70;;;;;;5049270;28;20218;-78
2022/07/25 04:08:45;;;;;;;7.40;6.80;;;24.30;92.10;;;;;;5030221;28;20198;-78
2022/07/25 04:11:12;;;;;;;7.03;6.45;;;24.20;91.90;;;;;;5045993;28;20674;-78
2022/07/25 04:13:41;;;;;;;7.18;6.57;;;24.10;92.10;;;;;;5027812;28;20202;-78
2022/07/25 04:16:09;;;;;;;8.32;7.28;;;24.30;91.90;;;;;;5048572;28;20231;-78
2022/07/25 04:18:37;;;;;;;7.95;6.85;;;24.30;91.80;;;;;;5024600;28;20187;-77
2022/07/25 04:21:05;;;;;;;7.38;6.68;;;24.20;91.60;;;;;;5043489;28;20222;-78
2022/07/25 04:23:33;;;;;;;7.13;6.53;;;24.10;92.10;;;;;;5034188;28;20195;-78
2022/07/25 04:26:00;;;;;;;6.85;6.25;;;24.10;92.00;;;;;;5047064;28;20675;-78
2022/07/25 04:28:28;;;;;;;8.43;7.20;;;24.10;92.00;;;;;;5030033;28;20210;-78
2022/07/25 04:30:57;;;;;;;7.70;7.00;;;24.30;91.80;;;;;;5030724;28;20195;-78
2022/07/25 04:33:25;;;;;;;6.85;6.25;;;24.20;91.70;;;;;;5040671;28;20550;-78
2022/07/25 04:35:52;;;;;;;7.55;6.85;;;24.30;91.70;;;;;;5041218;28;20206;-78
2022/07/25 04:38:20;;;;;;;6.80;6.15;;;24.40;91.40;;;;;;5042390;28;20198;-78
2022/07/25 04:40:48;;;;;;;7.90;6.80;;;24.50;91.60;;;;;;5040947;28;20189;-78
2022/07/25 04:43:15;;;;;;;6.93;6.22;;;24.50;91.40;;;;;;5031623;28;20202;-78
2022/07/25 04:45:43;;;;;;;6.75;6.13;;;24.60;91.50;;;;;;5047108;28;20237;-78
2022/07/25 04:48:11;;;;;;;7.80;7.18;;;24.70;91.90;;;;;;5045587;28;20202;-78
2022/07/25 04:50:39;;;;;;;7.35;6.75;;;24.80;91.90;;;;;;5051162;28;20663;-78
2022/07/25 04:53:07;;;;;;;8.45;7.07;;;24.80;91.80;;;;;;5047813;28;20198;-78
2022/07/25 04:56:00;;;;;;;7.05;6.45;;;24.80;91.90;;;;;;5042360;28;20218;-78
2022/07/25 04:58:27;;;;;;;7.72;6.97;;;24.90;92.10;;;;;;5037589;28;20198;-78
2022/07/25 05:00:55;;;;;;;7.10;6.50;;;24.90;92.00;;;;;;5038361;28;20656;-78
2022/07/25 05:03:24;;;;;;;9.15;7.40;;;24.90;92.20;;;;;;5035136;28;20209;-77
2022/07/25 05:05:51;;;;;;;8.23;7.20;;;24.90;92.40;;;;;;5040492;28;20225;-78
2022/07/25 05:08:19;;;;;;;8.10;7.03;;;24.90;92.40;;;;;;5035360;28;20206;-78
2022/07/25 05:10:46;;;;;;;9.00;7.70;;;25.00;92.40;;;;;;5028959;28;20194;-78
2022/07/25 05:13:14;;;;;;;7.60;6.90;;;24.80;92.30;;;;;;5043852;28;20199;-78
2022/07/25 05:15:41;;;;;;;8.43;7.03;;;24.70;92.80;;;;;;5050226;28;20217;-78
2022/07/25 05:18:09;;;;;;;7.85;7.10;;;24.80;92.80;;;;;;5058704;28;20206;-78
2022/07/25 05:20:39;;;;;;;7.80;7.10;;;24.90;92.80;;;;;;5032016;28;20209;-78
2022/07/25 05:23:06;;;;;;;7.45;6.72;;;25.00;92.80;;;;;;5032047;28;20664;-78
2022/07/25 05:25:34;;;;;;;7.22;6.53;;;24.90;93.50;;;;;;5047375;28;20222;-80
2022/07/25 05:28:01;;;;;;;8.15;7.30;;;25.00;93.30;;;;;;5038411;28;20209;-80
2022/07/25 05:30:31;;;;;;;6.88;6.20;;;25.10;93.10;;;;;;5042984;28;20206;-79
2022/07/25 05:32:58;;;;;;;7.10;6.40;;;25.10;92.80;;;;;;5056539;28;20193;-80
2022/07/25 05:35:26;;;;;;;8.93;6.38;;;25.10;92.80;;;;;;5054875;28;20241;-80
2022/07/25 05:38:10;;;;;;;7.60;6.70;;;25.10;92.80;;;;;;4994459;28;20229;-80
2022/07/25 05:40:37;;;;;;;6.97;6.28;;;25.00;93.20;;;;;;5034253;28;20206;-80
2022/07/25 05:43:04;;;;;;;7.20;6.50;;;25.10;93.10;;;;;;5048518;28;20214;-80
2022/07/25 05:45:32;;;;;;;7.00;6.35;;;25.10;92.80;;;;;;5039815;28;20232;-78
2022/07/25 05:48:31;;;;;;;6.95;6.10;;;25.10;92.40;;;;;;5039958;28;20590;-78
2022/07/25 05:51:03;;;;;;;6.90;6.35;;;25.20;92.70;;;;;;5032934;28;20656;-78
2022/07/25 05:53:42;;;;;;;7.10;6.50;;;25.30;92.30;;;;;;5026511;28;20203;-78
2022/07/25 05:56:09;;;;;;;5.90;5.40;;;25.30;92.50;;;;;;5049122;28;20219;-78
2022/07/25 05:58:39;;;;;;;6.47;5.88;;;25.30;92.40;;;;;;5051555;28;20203;-78
2022/07/25 06:01:16;;;;;;;6.97;6.30;;;25.40;92.30;;;;;;5047158;28;20218;-78
2022/07/25 06:03:44;;;;;;;6.35;5.82;;;25.40;92.40;;;;;;5021449;28;20205;-78
2022/07/25 06:06:12;;;;;;;11.02;7.50;;;25.40;92.40;;;;;;5051259;28;20704;-78
2022/07/25 06:08:40;;;;;;;8.05;6.88;;;25.50;92.60;;;;;;5044630;28;20202;-79
2022/07/25 06:11:09;;;;;;;13.63;8.85;;;25.50;92.30;;;;;;5037189;28;20199;-78
2022/07/25 06:13:37;;;;;;;14.13;8.18;;;25.50;92.60;;;;;;5031605;28;20191;-77
2022/07/25 06:16:05;;;;;;;9.15;7.72;;;25.60;92.50;;;;;;5042365;28;20230;-78
2022/07/25 06:18:32;;;;;;;11.05;7.90;;;25.70;92.70;;;;;;5028521;28;20203;-78
2022/07/25 06:21:00;;;;;;;11.98;8.60;;;25.70;92.60;;;;;;5028209;28;20211;-78
2022/07/25 06:23:27;;;;;;;10.35;7.05;;;25.70;92.50;;;;;;5054294;28;21201;-78
2022/07/25 06:25:55;;;;;;;9.75;6.60;;;25.60;92.50;;;;;;5031159;28;20225;-79
2022/07/25 06:28:24;;;;;;;13.65;7.30;;;25.70;92.50;;;;;;5038051;28;20194;-78
2022/07/25 06:30:51;;;;;;;9.23;7.53;;;25.70;92.60;;;;;;5049210;28;20206;-78
2022/07/25 06:33:19;;;;;;;9.75;6.78;;;25.60;92.40;;;;;;5056903;28;20560;-79
2022/07/25 06:35:46;;;;;;;6.85;6.25;;;25.70;92.60;;;;;;5049070;28;20676;-79
2022/07/25 06:38:14;;;;;;;7.88;6.93;;;25.70;92.50;;;;;;5042491;28;20191;-79
2022/07/25 06:40:41;;;;;;;7.07;6.38;;;25.70;92.10;;;;;;5036723;28;20559;-79
2022/07/25 06:43:08;;;;;;;6.97;6.05;;;25.80;92.10;;;;;;5039892;28;20213;-79
2022/07/25 06:45:38;;;;;;;8.00;6.93;;;25.90;92.20;;;;;;5035941;28;20230;-79
2022/07/25 06:48:06;;;;;;;7.15;6.47;;;26.00;92.10;;;;;;5049905;28;20541;-79
2022/07/25 06:50:33;;;;;;;7.07;6.35;;;26.10;91.90;;;;;;5051656;28;20640;-79
2022/07/25 06:53:00;;;;;;;6.97;6.38;;;26.20;91.90;;;;;;5044164;28;20199;-78
2022/07/25 06:55:28;;;;;;;7.50;6.80;;;26.20;91.60;;;;;;5035093;28;20229;-78
2022/07/25 06:57:55;;;;;;;7.80;7.03;;;26.30;91.10;;;;;;5046136;28;20194;-78
2022/07/25 07:00:23;;;;;;;7.05;6.35;;;26.30;91.00;;;;;;5052580;28;20210;-79
2022/07/25 07:03:03;;;;;;;7.13;6.43;;;26.40;90.40;;;;;;5041429;28;20223;-79
2022/07/25 07:05:35;;;;;;;7.30;6.70;;;26.40;90.90;;;;;;5048691;28;20238;-79
2022/07/25 07:08:03;;;;;;;6.93;6.32;;;26.50;91.00;;;;;;5028488;28;20667;-79
2022/07/25 07:10:31;;;;;;;7.22;6.53;;;26.40;91.10;;;;;;5034032;28;20202;-79
2022/07/25 07:13:09;;;;;;;7.60;6.80;;;26.40;90.70;;;;;;5048883;28;20195;-78
2022/07/25 07:15:36;;;;;;;7.18;6.50;;;26.50;90.60;;;;;;5031616;28;20218;-79
2022/07/25 07:18:06;;;;;;;7.40;6.75;;;26.60;90.50;;;;;;5030096;28;20202;-79
2022/07/25 07:20:33;;;;;;;7.13;6.53;;;26.50;89.40;;;;;;5038656;28;20209;-79
2022/07/25 07:23:01;;;;;;;8.43;7.28;;;26.60;89.70;;;;;;5036338;28;20231;-79
2022/07/25 07:25:29;;;;;;;6.70;6.10;;;26.60;89.80;;;;;;5040122;28;20226;-79
2022/07/25 07:27:57;;;;;;;7.32;6.63;;;26.60;90.00;;;;;;5056614;28;20191;-79
2022/07/25 07:30:26;;;;;;;7.03;6.43;;;26.70;89.00;;;;;;5060234;28;20221;-79
2022/07/25 07:32:53;;;;;;;7.35;6.72;;;26.70;88.80;;;;;;5052016;28;20179;-79
2022/07/25 07:35:24;;;;;;;7.28;6.57;;;26.70;88.10;;;;;;5056784;28;20253;-79
2022/07/25 07:37:52;;;;;;;7.15;6.45;;;26.70;87.60;;;;;;5029422;28;20198;-79
2022/07/25 07:40:19;;;;;;;7.85;7.15;;;26.80;87.60;;;;;;5046820;28;20199;-79
2022/07/25 07:42:48;;;;;;;7.38;6.65;;;26.80;87.10;;;;;;5046551;28;20223;-78
2022/07/25 07:45:17;;;;;;;7.25;6.25;;;26.70;87.70;;;;;;5052404;28;20230;-77
2022/07/25 07:48:06;;;;;;;7.63;7.00;;;26.70;86.40;;;;;;5041413;28;20203;-77
2022/07/25 07:50:35;;;;;;;6.90;6.28;;;26.80;86.70;;;;;;5039529;28;20190;-78
2022/07/25 07:53:05;;;;;;;6.50;5.90;;;26.70;86.90;;;;;;5041047;28;20194;-80
2022/07/25 07:55:44;;;;;;;7.95;7.15;;;26.80;86.90;;;;;;5043037;28;20214;-80
2022/07/25 07:58:14;;;;;;;7.35;6.43;;;26.80;87.00;;;;;;5031175;28;20198;-80
2022/07/25 08:00:44;;;;;;;7.57;6.80;;;26.80;87.20;;;;;;5047704;28;20194;-79
2022/07/25 08:03:12;;;;;;;7.88;7.05;;;26.90;87.30;;;;;;5026749;28;20211;-80
2022/07/25 08:05:43;;;;;;;6.85;6.15;;;26.90;87.00;;;;;;5048992;28;20210;-81
2022/07/25 08:08:13;;;;;;;7.88;6.97;;;27.10;87.30;;;;;;5035526;28;20209;-81
2022/07/25 08:10:42;;;;;;;7.47;6.75;;;27.30;85.50;;;;;;5045613;28;20201;-79
2022/07/25 08:13:16;;;;;;;7.80;7.10;;;27.40;86.30;;;;;;5024941;28;20202;-79
2022/07/25 08:15:49;;;;;;;7.40;6.60;;;27.40;85.70;;;;;;5048799;28;20225;-80
2022/07/25 08:18:16;;;;;;;7.00;6.25;;;27.40;86.00;;;;;;5046284;28;20256;-80
2022/07/25 08:20:45;;;;;;;7.70;6.90;;;27.40;86.50;;;;;;5047060;28;20572;-80
2022/07/25 08:23:13;;;;;;;8.88;6.85;;;27.40;84.80;;;;;;5045137;28;20237;-79
2022/07/25 08:25:41;;;;;;;7.60;6.50;;;27.30;85.10;;;;;;5030987;28;20218;-78
2022/07/25 08:28:09;;;;;;;7.47;6.78;;;27.40;84.40;;;;;;5045505;28;20206;-80
2022/07/25 08:30:38;;;;;;;8.13;7.40;;;27.40;85.00;;;;;;5032278;28;20207;-77
2022/07/25 08:33:09;;;;;;;7.38;6.68;;;27.40;83.90;;;;;;5044929;28;20556;-77
2022/07/25 08:35:38;;;;;;;7.53;6.65;;;27.40;83.90;;;;;;5029897;28;20684;-77
2022/07/25 08:38:10;;;;;;;7.95;7.13;;;27.40;85.10;;;;;;5044888;28;20206;-77
2022/07/25 08:40:39;;;;;;;8.85;6.97;;;27.40;84.90;;;;;;5060517;28;20199;-77
2022/07/25 08:43:12;;;;;;;7.70;6.90;;;27.50;84.70;;;;;;5044433;28;20225;-76
2022/07/25 08:45:44;;;;;;;8.73;7.50;;;27.40;83.90;;;;;;5041193;28;20228;-77
2022/07/25 08:48:12;;;;;;;7.18;6.57;;;27.50;84.40;;;;;;5037799;28;20195;-77
2022/07/25 08:50:40;;;;;;;7.75;7.03;;;27.60;84.70;;;;;;5044929;28;20572;-76
2022/07/25 08:53:09;;;;;;;7.38;6.65;;;27.70;85.00;;;;;;5045477;28;20206;-77
2022/07/25 08:55:37;;;;;;;7.97;7.28;;;27.60;85.40;;;;;;5028402;28;20218;-77
2022/07/25 08:58:04;;;;;;;9.25;6.95;;;27.40;86.30;;;;;;5048266;28;20195;-77
2022/07/25 09:00:32;;;;;;;7.32;6.63;;;27.40;87.10;;;;;;5037939;28;20198;-76
2022/07/25 09:03:01;;;;;;;8.40;7.30;;;27.40;87.90;;;;;;5045273;28;20201;-76
2022/07/25 09:05:31;;;;;;;7.85;7.00;;;27.30;86.50;;;;;;5045147;28;20214;-77
2022/07/25 09:08:12;;;;;;;8.88;7.22;;;27.30;87.60;;;;;;5045300;28;20217;-77
2022/07/25 09:10:45;;;;;;;7.90;7.13;;;27.10;88.30;;;;;;5049870;28;20648;-76
2022/07/25 09:13:14;;;;;;;8.35;7.57;;;27.10;88.00;;;;;;5040611;28;20193;-76
2022/07/25 09:15:45;;;;;;;10.50;7.50;;;27.10;88.80;;;;;;5041384;28;20230;-77
2022/07/25 09:18:15;;;;;;;9.43;7.20;;;27.30;89.00;;;;;;5025537;28;20218;-77
2022/07/25 09:20:44;;;;;;;7.75;6.93;;;27.30;89.80;;;;;;5038958;28;20202;-77
2022/07/25 09:23:14;;;;;;;8.35;7.35;;;27.40;90.00;;;;;;5051560;28;20245;-77
2022/07/25 09:25:42;;;;;;;8.43;7.55;;;27.30;89.20;;;;;;5036833;28;20692;-77
2022/07/25 09:28:12;;;;;;;9.10;7.38;;;27.40;89.70;;;;;;5030160;28;20580;-77
2022/07/25 09:30:56;;;;;;;8.25;7.35;;;27.30;89.30;;;;;;5040533;28;20191;-77
2022/07/25 09:33:25;;;;;;;8.00;7.20;;;27.30;89.60;;;;;;5046690;28;20191;-78
2022/07/25 09:35:53;;;;;;;9.35;7.47;;;27.40;89.10;;;;;;5046413;28;20237;-77
2022/07/25 09:38:23;;;;;;;8.35;7.25;;;27.40;89.60;;;;;;5048429;28;20194;-78
2022/07/25 09:40:56;;;;;;;8.00;7.07;;;27.40;89.80;;;;;;5054781;28;20194;-78
2022/07/25 09:43:23;;;;;;;8.50;7.63;;;27.40;89.80;;;;;;5038636;28;20565;-78
2022/07/25 09:45:52;;;;;;;8.13;7.35;;;27.20;89.30;;;;;;5038662;28;20234;-78
2022/07/25 09:48:20;;;;;;;8.35;7.10;;;27.20;89.90;;;;;;5031965;28;20273;-79
2022/07/25 09:50:47;;;;;;;7.95;7.28;;;27.40;89.90;;;;;;5026853;28;20211;-78
2022/07/25 09:53:15;;;;;;;8.27;7.55;;;27.50;88.50;;;;;;5043745;28;20191;-78
2022/07/25 09:55:44;;;;;;;8.15;7.30;;;27.60;89.30;;;;;;5042761;28;20215;-78
2022/07/25 09:58:13;;;;;;;7.82;7.05;;;27.60;87.30;;;;;;5027650;28;20195;-78
2022/07/25 10:00:42;;;;;;;7.57;6.75;;;27.60;87.10;;;;;;5044117;28;20684;-78
2022/07/25 10:03:17;;;;;;;8.73;6.72;;;27.80;87.40;;;;;;5049614;28;20198;-78
2022/07/25 10:05:56;;;;;;;7.43;6.72;;;27.90;86.80;;;;;;5051363;28;20575;-79
2022/07/25 10:08:24;;;;;;;7.80;7.10;;;27.90;85.80;;;;;;5050436;28;20212;-78
2022/07/25 10:10:53;;;;;;;7.80;7.00;;;28.00;86.30;;;;;;5032547;28;20203;-78
2022/07/25 10:13:30;;;;;;;7.30;6.60;;;27.90;87.40;;;;;;5035245;28;20202;-78
2022/07/25 10:15:58;;;;;;;7.25;6.65;;;28.10;87.50;;;;;;5031777;28;20229;-78
2022/07/25 10:18:29;;;;;;;8.85;7.05;;;28.00;85.60;;;;;;5033357;28;20213;-78
2022/07/25 10:21:09;;;;;;;7.95;7.22;;;27.90;86.30;;;;;;5039070;28;20205;-78
2022/07/25 10:23:37;;;;;;;7.93;7.05;;;27.60;87.00;;;;;;5044733;28;20692;-78
2022/07/25 10:26:09;;;;;;;8.65;6.65;;;27.70;88.00;;;;;;5041602;28;20277;-78
2022/07/25 10:28:39;;;;;;;8.30;7.50;;;27.60;88.10;;;;;;5044646;28;20198;-78
2022/07/25 10:31:21;;;;;;;8.05;6.72;;;27.40;88.60;;;;;;5052914;28;20214;-79
2022/07/25 10:34:09;;;;;;;8.80;7.57;;;27.30;89.40;;;;;;5030442;28;20205;-78
2022/07/25 10:36:46;;;;;;;8.15;7.35;;;27.20;90.10;;;;;;5037101;28;20199;-79
2022/07/25 10:39:15;;;;;;;8.18;7.38;;;27.20;90.20;;;;;;5058270;28;20660;-79
2022/07/25 10:41:51;;;;;;;9.43;8.52;;;27.30;90.40;;;;;;5051400;28;20566;-79
2022/07/25 10:44:18;;;;;;;8.70;7.55;;;27.30;90.40;;;;;;5037008;28;20225;-79
2022/07/25 10:46:47;;;;;;;8.10;6.90;;;27.40;90.40;;;;;;5034423;28;20199;-78
2022/07/25 10:49:19;;;;;;;9.43;7.55;;;27.30;90.60;;;;;;5047578;28;20198;-78
2022/07/25 10:51:59;;;;;;;9.13;8.20;;;27.10;90.70;;;;;;5043295;28;20199;-78
2022/07/25 10:54:32;;;;;;;8.10;7.32;;;27.00;90.80;;;;;;5038385;28;20191;-78
2022/07/25 10:57:04;;;;;;;9.73;8.10;;;26.90;91.00;;;;;;5041717;28;20198;-79
2022/07/25 10:59:35;;;;;;;8.23;7.53;;;27.00;91.70;;;;;;5057892;28;20194;-78
2022/07/25 11:02:03;;;;;;;9.48;7.78;;;27.10;91.30;;;;;;5027488;28;20206;-78
2022/07/25 11:04:30;;;;;;;8.45;7.65;;;27.20;91.20;;;;;;5032285;28;20628;-78
2022/07/25 11:07:07;;;;;;;8.93;7.88;;;27.30;90.80;;;;;;5052295;28;20241;-78
2022/07/25 11:09:34;;;;;;;7.53;6.82;;;27.40;91.00;;;;;;5054030;28;20190;-79
2022/07/25 11:12:03;;;;;;;8.40;7.15;;;27.70;90.80;;;;;;5055479;28;20210;-78
2022/07/25 11:14:32;;;;;;;8.32;7.20;;;27.80;90.30;;;;;;5047747;28;20213;-78
2022/07/25 11:17:11;;;;;;;8.77;7.97;;;27.80;90.50;;;;;;5055106;28;20198;-78
2022/07/25 11:19:39;;;;;;;7.63;6.90;;;27.90;89.10;;;;;;5030053;28;20191;-78
2022/07/25 11:22:16;;;;;;;8.18;7.10;;;27.70;87.80;;;;;;5042857;28;20206;-78
2022/07/25 11:24:46;;;;;;;7.07;6.38;;;27.80;88.40;;;;;;5052289;28;20218;-79
2022/07/25 11:27:25;;;;;;;8.18;6.50;;;28.00;87.90;;;;;;5055845;28;20213;-79
2022/07/25 11:29:54;;;;;;;8.23;7.05;;;28.20;86.50;;;;;;5055678;28;20194;-79
2022/07/25 11:32:24;;;;;;;9.07;6.55;;;28.10;84.80;;;;;;5037099;28;20206;-78
2022/07/25 11:34:54;;;;;;;7.25;6.55;;;28.10;85.70;;;;;;5038744;28;20707;-78
2022/07/25 11:37:21;;;;;;;7.40;6.47;;;28.00;86.30;;;;;;5047897;28;20206;-78
2022/07/25 11:39:49;;;;;;;6.25;5.65;;;28.00;86.10;;;;;;5045331;28;20191;-78
2022/07/25 11:42:19;;;;;;;7.07;6.15;;;28.10;85.60;;;;;;5045240;28;20198;-78
2022/07/25 11:44:48;;;;;;;8.13;6.07;;;27.90;85.00;;;;;;5052188;28;20233;-78
2022/07/25 11:47:24;;;;;;;7.35;6.10;;;27.90;84.80;;;;;;5049291;28;20787;-78
2022/07/25 11:49:54;;;;;;;5.90;5.40;;;28.00;83.80;;;;;;5035971;28;20198;-78
2022/07/25 11:52:25;;;;;;;7.05;5.28;;;28.10;82.90;;;;;;5046175;28;20202;-78
2022/07/25 11:54:54;;;;;;;6.00;5.40;;;28.10;82.50;;;;;;5033958;28;20686;-78
2022/07/25 11:57:25;;;;;;;5.78;5.28;;;28.20;82.10;;;;;;5035739;28;20209;-78
2022/07/25 12:00:01;;;;;;;6.00;5.40;;;28.40;82.40;;;;;;5054179;28;20198;-77
2022/07/25 12:02:36;;;;;;;5.95;5.35;;;28.50;80.80;;;;;;5048436;28;20194;-77
2022/07/25 12:05:06;;;;;;;7.97;5.63;;;28.60;80.60;;;;;;5052954;28;20293;-77
2022/07/25 12:07:43;;;;;;;5.15;4.75;;;28.40;80.80;;;;;;5026238;28;20661;-77
2022/07/25 12:10:31;;;;;;;6.28;5.60;;;28.40;80.90;;;;;;5033449;28;20202;-77
2022/07/25 12:13:02;;;;;;;5.78;5.28;;;28.50;81.10;;;;;;5026591;28;20211;-77
2022/07/25 12:15:32;;;;;;;5.30;4.85;;;28.40;78.90;;;;;;5033269;28;20626;-77
2022/07/25 12:18:01;;;;;;;6.20;5.45;;;28.60;79.90;;;;;;5050706;28;20198;-77
2022/07/25 12:20:30;;;;;;;6.00;5.32;;;28.20;79.80;;;;;;5042058;28;20191;-77
2022/07/25 12:23:04;;;;;;;6.13;5.18;;;28.20;80.40;;;;;;5043314;28;20202;-77
2022/07/25 12:25:37;;;;;;;5.95;5.30;;;28.10;81.10;;;;;;5050618;28;20213;-77
2022/07/25 12:28:32;;;;;;;7.35;5.32;;;28.20;80.60;;;;;;5029008;28;20206;-77
2022/07/25 12:31:00;;;;;;;6.88;5.20;;;27.80;81.90;;;;;;5054556;28;20203;-77
2022/07/25 12:33:28;;;;;;;5.65;5.07;;;27.80;81.00;;;;;;5047843;28;20191;-77
2022/07/25 12:35:55;;;;;;;6.00;4.68;;;27.90;81.70;;;;;;5033618;28;20730;-77
2022/07/25 12:38:23;;;;;;;4.97;4.47;;;28.00;82.00;;;;;;5033531;28;20202;-77
2022/07/25 12:40:51;;;;;;;6.32;4.75;;;28.00;82.20;;;;;;5045457;28;20203;-77
2022/07/25 12:43:18;;;;;;;5.65;4.93;;;28.00;82.20;;;;;;5047011;28;20210;-77
2022/07/25 12:45:46;;;;;;;4.95;4.20;;;28.00;82.10;;;;;;5030712;28;20226;-77
2022/07/25 12:48:15;;;;;;;7.40;4.50;;;27.80;83.20;;;;;;5050846;28;20205;-77
2022/07/25 12:50:43;;;;;;;5.60;4.10;;;27.90;83.80;;;;;;5046720;28;20675;-77
2022/07/25 12:53:12;;;;;;;5.03;4.55;;;28.10;83.00;;;;;;5046061;28;20209;-77
2022/07/25 12:56:03;;;;;;;6.47;4.07;;;28.30;82.40;;;;;;5050838;28;20577;-77
2022/07/25 12:58:32;;;;;;;5.28;4.15;;;28.30;82.40;;;;;;5047270;28;20557;-77
2022/07/25 13:01:09;;;;;;;6.22;4.47;;;28.30;83.00;;;;;;5034839;28;20217;-77